sensor_id;sensor_type;location;lat;lon;timestamp;P1;durP1;ratioP1;P2;durP2;ratioP2
4903;SDS011;2467;48.142;11.616;2023-07-24T00:00:13;9.52;;;8.63;;
4903;SDS011;2467;48.142;11.616;2023-07-24T00:00:46;9.05;;;8.15;;
4903;SDS011;2467;48.142;11.616;2023-07-24T00:01:18;8.73;;;7.93;;
4903;SDS011;2467;48.142;11.616;2023-07-24T00:01:50;9.38;;;8.48;;
4903;SDS011;2467;48.142;11.616;2023-07-24T00:02:22;8.73;;;7.78;;
4903;SDS011;2467;48.142;11.616;2023-07-24T00:02:54;8.30;;;7.50;;
4903;SDS011;2467;48.142;11.616;2023-07-24T00:03:28;8.63;;;7.75;;
4903;SDS011;2467;48.142;11.616;2023-07-24T00:04:00;9.13;;;8.18;;
4903;SDS011;2467;48.142;11.616;2023-07-24T00:04:32;8.65;;;7.78;;
4903;SDS011;2467;48.142;11.616;2023-07-24T00:05:04;9.93;;;8.35;;
4903;SDS011;2467;48.142;11.616;2023-07-24T00:05:37;7.65;;;6.95;;
4903;SDS011;2467;48.142;11.616;2023-07-24T00:06:09;9.82;;;9.00;;
4903;SDS011;2467;48.142;11.616;2023-07-24T00:06:41;9.20;;;8.32;;
4903;SDS011;2467;48.142;11.616;2023-07-24T00:07:13;9.02;;;8.13;;
4903;SDS011;2467;48.142;11.616;2023-07-24T00:07:46;8.73;;;8.00;;
4903;SDS011;2467;48.142;11.616;2023-07-24T00:08:18;9.38;;;7.72;;
4903;SDS011;2467;48.142;11.616;2023-07-24T00:08:50;8.75;;;7.85;;
4903;SDS011;2467;48.142;11.616;2023-07-24T00:09:22;13.18;;;11.88;;
4903;SDS011;2467;48.142;11.616;2023-07-24T00:09:55;17.98;;;16.13;;
4903;SDS011;2467;48.142;11.616;2023-07-24T00:10:28;17.38;;;15.68;;
4903;SDS011;2467;48.142;11.616;2023-07-24T00:11:00;33.25;;;29.95;;
4903;SDS011;2467;48.142;11.616;2023-07-24T00:11:34;43.92;;;39.58;;
4903;SDS011;2467;48.142;11.616;2023-07-24T00:12:07;49.72;;;44.55;;
4903;SDS011;2467;48.142;11.616;2023-07-24T00:12:39;32.83;;;29.48;;
4903;SDS011;2467;48.142;11.616;2023-07-24T00:13:11;40.60;;;36.50;;
4903;SDS011;2467;48.142;11.616;2023-07-24T00:13:44;38.97;;;34.88;;
4903;SDS011;2467;48.142;11.616;2023-07-24T00:14:16;24.88;;;22.60;;
4903;SDS011;2467;48.142;11.616;2023-07-24T00:14:48;23.85;;;21.65;;
4903;SDS011;2467;48.142;11.616;2023-07-24T00:15:20;40.85;;;36.95;;
4903;SDS011;2467;48.142;11.616;2023-07-24T00:15:53;39.00;;;35.25;;
4903;SDS011;2467;48.142;11.616;2023-07-24T00:16:25;29.65;;;27.05;;
4903;SDS011;2467;48.142;11.616;2023-07-24T00:16:57;30.00;;;26.85;;
4903;SDS011;2467;48.142;11.616;2023-07-24T00:17:29;21.67;;;19.50;;
4903;SDS011;2467;48.142;11.616;2023-07-24T00:18:02;18.80;;;17.08;;
4903;SDS011;2467;48.142;11.616;2023-07-24T00:18:34;11.98;;;10.77;;
4903;SDS011;2467;48.142;11.616;2023-07-24T00:19:06;15.50;;;12.90;;
4903;SDS011;2467;48.142;11.616;2023-07-24T00:19:38;17.77;;;16.08;;
4903;SDS011;2467;48.142;11.616;2023-07-24T00:20:11;13.65;;;12.45;;
4903;SDS011;2467;48.142;11.616;2023-07-24T00:20:43;10.70;;;9.68;;
4903;SDS011;2467;48.142;11.616;2023-07-24T00:21:15;10.35;;;9.45;;
4903;SDS011;2467;48.142;11.616;2023-07-24T00:21:47;9.93;;;8.93;;
4903;SDS011;2467;48.142;11.616;2023-07-24T00:22:20;11.85;;;10.68;;
4903;SDS011;2467;48.142;11.616;2023-07-24T00:22:52;11.18;;;9.73;;
4903;SDS011;2467;48.142;11.616;2023-07-24T00:23:24;10.15;;;9.25;;
4903;SDS011;2467;48.142;11.616;2023-07-24T00:23:57;10.02;;;9.00;;
4903;SDS011;2467;48.142;11.616;2023-07-24T00:24:29;9.73;;;8.63;;
4903;SDS011;2467;48.142;11.616;2023-07-24T00:25:02;8.95;;;8.15;;
4903;SDS011;2467;48.142;11.616;2023-07-24T00:25:38;10.20;;;9.10;;
4903;SDS011;2467;48.142;11.616;2023-07-24T00:26:11;9.48;;;8.57;;
4903;SDS011;2467;48.142;11.616;2023-07-24T00:26:43;8.73;;;7.93;;
4903;SDS011;2467;48.142;11.616;2023-07-24T00:27:14;9.13;;;8.32;;
4903;SDS011;2467;48.142;11.616;2023-07-24T00:27:47;9.35;;;8.55;;
4903;SDS011;2467;48.142;11.616;2023-07-24T00:28:19;9.70;;;8.68;;
4903;SDS011;2467;48.142;11.616;2023-07-24T00:28:51;9.15;;;8.32;;
4903;SDS011;2467;48.142;11.616;2023-07-24T00:29:23;9.68;;;8.68;;
4903;SDS011;2467;48.142;11.616;2023-07-24T00:29:56;9.13;;;8.23;;
4903;SDS011;2467;48.142;11.616;2023-07-24T00:30:27;9.90;;;8.93;;
4903;SDS011;2467;48.142;11.616;2023-07-24T00:30:59;8.60;;;7.97;;
4903;SDS011;2467;48.142;11.616;2023-07-24T00:31:31;8.27;;;7.57;;
4903;SDS011;2467;48.142;11.616;2023-07-24T00:32:05;9.13;;;8.32;;
4903;SDS011;2467;48.142;11.616;2023-07-24T00:32:37;9.55;;;8.75;;
4903;SDS011;2467;48.142;11.616;2023-07-24T00:33:09;9.70;;;8.90;;
4903;SDS011;2467;48.142;11.616;2023-07-24T00:33:42;9.88;;;8.98;;
4903;SDS011;2467;48.142;11.616;2023-07-24T00:34:14;8.25;;;7.55;;
4903;SDS011;2467;48.142;11.616;2023-07-24T00:34:46;9.52;;;8.00;;
4903;SDS011;2467;48.142;11.616;2023-07-24T00:35:18;8.13;;;7.32;;
4903;SDS011;2467;48.142;11.616;2023-07-24T00:35:54;8.70;;;7.90;;
4903;SDS011;2467;48.142;11.616;2023-07-24T00:36:26;9.07;;;8.27;;
4903;SDS011;2467;48.142;11.616;2023-07-24T00:36:59;8.63;;;7.78;;
4903;SDS011;2467;48.142;11.616;2023-07-24T00:37:32;8.68;;;7.75;;
4903;SDS011;2467;48.142;11.616;2023-07-24T00:38:04;9.32;;;8.43;;
4903;SDS011;2467;48.142;11.616;2023-07-24T00:38:36;7.22;;;6.53;;
4903;SDS011;2467;48.142;11.616;2023-07-24T00:39:07;9.07;;;8.13;;
4903;SDS011;2467;48.142;11.616;2023-07-24T00:39:40;8.88;;;7.65;;
4903;SDS011;2467;48.142;11.616;2023-07-24T00:40:12;7.90;;;7.20;;
4903;SDS011;2467;48.142;11.616;2023-07-24T00:40:45;8.63;;;7.82;;
4903;SDS011;2467;48.142;11.616;2023-07-24T00:41:17;9.77;;;8.60;;
4903;SDS011;2467;48.142;11.616;2023-07-24T00:41:49;9.60;;;7.90;;
4903;SDS011;2467;48.142;11.616;2023-07-24T00:42:22;7.90;;;7.10;;
4903;SDS011;2467;48.142;11.616;2023-07-24T00:42:54;8.77;;;8.00;;
4903;SDS011;2467;48.142;11.616;2023-07-24T00:43:26;9.05;;;8.15;;
4903;SDS011;2467;48.142;11.616;2023-07-24T00:43:58;9.40;;;8.50;;
4903;SDS011;2467;48.142;11.616;2023-07-24T00:44:31;7.90;;;7.20;;
4903;SDS011;2467;48.142;11.616;2023-07-24T00:45:03;8.48;;;7.65;;
4903;SDS011;2467;48.142;11.616;2023-07-24T00:45:36;9.23;;;8.10;;
4903;SDS011;2467;48.142;11.616;2023-07-24T00:46:09;8.23;;;7.43;;
4903;SDS011;2467;48.142;11.616;2023-07-24T00:46:41;8.82;;;7.93;;
4903;SDS011;2467;48.142;11.616;2023-07-24T00:47:13;8.75;;;7.93;;
4903;SDS011;2467;48.142;11.616;2023-07-24T00:47:45;11.15;;;8.30;;
4903;SDS011;2467;48.142;11.616;2023-07-24T00:48:18;8.25;;;7.57;;
4903;SDS011;2467;48.142;11.616;2023-07-24T00:48:50;9.20;;;8.05;;
4903;SDS011;2467;48.142;11.616;2023-07-24T00:49:23;7.90;;;7.20;;
4903;SDS011;2467;48.142;11.616;2023-07-24T00:49:56;9.50;;;8.60;;
4903;SDS011;2467;48.142;11.616;2023-07-24T00:50:29;8.90;;;7.85;;
4903;SDS011;2467;48.142;11.616;2023-07-24T00:51:01;8.90;;;8.10;;
4903;SDS011;2467;48.142;11.616;2023-07-24T00:51:33;8.38;;;7.55;;
4903;SDS011;2467;48.142;11.616;2023-07-24T00:52:06;8.10;;;7.25;;
4903;SDS011;2467;48.142;11.616;2023-07-24T00:52:39;8.60;;;7.75;;
4903;SDS011;2467;48.142;11.616;2023-07-24T00:53:12;9.25;;;8.45;;
4903;SDS011;2467;48.142;11.616;2023-07-24T00:53:46;9.32;;;8.40;;
4903;SDS011;2467;48.142;11.616;2023-07-24T00:54:19;8.15;;;7.35;;
4903;SDS011;2467;48.142;11.616;2023-07-24T00:54:54;8.65;;;7.68;;
4903;SDS011;2467;48.142;11.616;2023-07-24T00:55:27;8.30;;;7.60;;
4903;SDS011;2467;48.142;11.616;2023-07-24T00:56:00;8.70;;;7.90;;
4903;SDS011;2467;48.142;11.616;2023-07-24T00:56:33;8.80;;;7.97;;
4903;SDS011;2467;48.142;11.616;2023-07-24T00:57:06;8.50;;;7.65;;
4903;SDS011;2467;48.142;11.616;2023-07-24T00:57:38;12.20;;;7.70;;
4903;SDS011;2467;48.142;11.616;2023-07-24T00:58:11;8.73;;;7.93;;
4903;SDS011;2467;48.142;11.616;2023-07-24T00:58:44;7.70;;;6.95;;
4903;SDS011;2467;48.142;11.616;2023-07-24T00:59:16;9.00;;;8.07;;
4903;SDS011;2467;48.142;11.616;2023-07-24T00:59:48;8.40;;;7.70;;
4903;SDS011;2467;48.142;11.616;2023-07-24T01:00:20;8.73;;;7.93;;
4903;SDS011;2467;48.142;11.616;2023-07-24T01:00:53;8.88;;;8.05;;
4903;SDS011;2467;48.142;11.616;2023-07-24T01:01:25;9.32;;;7.50;;
4903;SDS011;2467;48.142;11.616;2023-07-24T01:01:58;9.00;;;8.20;;
4903;SDS011;2467;48.142;11.616;2023-07-24T01:02:30;8.63;;;7.82;;
4903;SDS011;2467;48.142;11.616;2023-07-24T01:03:03;9.48;;;8.57;;
4903;SDS011;2467;48.142;11.616;2023-07-24T01:03:35;7.80;;;6.97;;
4903;SDS011;2467;48.142;11.616;2023-07-24T01:04:09;8.52;;;7.72;;
4903;SDS011;2467;48.142;11.616;2023-07-24T01:04:41;8.30;;;7.53;;
4903;SDS011;2467;48.142;11.616;2023-07-24T01:05:14;8.50;;;7.70;;
4903;SDS011;2467;48.142;11.616;2023-07-24T01:05:46;7.75;;;7.05;;
4903;SDS011;2467;48.142;11.616;2023-07-24T01:06:18;8.05;;;7.25;;
4903;SDS011;2467;48.142;11.616;2023-07-24T01:06:51;7.85;;;7.15;;
4903;SDS011;2467;48.142;11.616;2023-07-24T01:07:23;9.18;;;8.13;;
4903;SDS011;2467;48.142;11.616;2023-07-24T01:07:55;9.20;;;8.40;;
4903;SDS011;2467;48.142;11.616;2023-07-24T01:08:27;8.40;;;6.90;;
4903;SDS011;2467;48.142;11.616;2023-07-24T01:08:59;8.50;;;7.60;;
4903;SDS011;2467;48.142;11.616;2023-07-24T01:09:31;8.27;;;7.43;;
4903;SDS011;2467;48.142;11.616;2023-07-24T01:10:04;8.98;;;8.18;;
4903;SDS011;2467;48.142;11.616;2023-07-24T01:10:38;8.43;;;7.72;;
4903;SDS011;2467;48.142;11.616;2023-07-24T01:11:12;8.10;;;7.30;;
4903;SDS011;2467;48.142;11.616;2023-07-24T01:11:47;7.97;;;7.18;;
4903;SDS011;2467;48.142;11.616;2023-07-24T01:12:26;8.35;;;7.65;;
4903;SDS011;2467;48.142;11.616;2023-07-24T01:13:05;7.70;;;6.97;;
4903;SDS011;2467;48.142;11.616;2023-07-24T01:13:42;8.60;;;7.85;;
4903;SDS011;2467;48.142;11.616;2023-07-24T01:14:19;8.90;;;8.10;;
4903;SDS011;2467;48.142;11.616;2023-07-24T01:15:06;10.90;;;8.48;;
4903;SDS011;2467;48.142;11.616;2023-07-24T01:15:56;8.38;;;7.57;;
4903;SDS011;2467;48.142;11.616;2023-07-24T01:16:36;8.57;;;7.32;;
4903;SDS011;2467;48.142;11.616;2023-07-24T01:17:08;8.15;;;7.45;;
4903;SDS011;2467;48.142;11.616;2023-07-24T01:17:46;9.30;;;8.43;;
4903;SDS011;2467;48.142;11.616;2023-07-24T01:18:22;9.48;;;8.48;;
4903;SDS011;2467;48.142;11.616;2023-07-24T01:18:55;8.25;;;7.53;;
4903;SDS011;2467;48.142;11.616;2023-07-24T01:19:33;8.82;;;7.93;;
4903;SDS011;2467;48.142;11.616;2023-07-24T01:20:09;9.88;;;8.18;;
4903;SDS011;2467;48.142;11.616;2023-07-24T01:20:47;8.60;;;7.80;;
4903;SDS011;2467;48.142;11.616;2023-07-24T01:21:24;9.00;;;8.02;;
4903;SDS011;2467;48.142;11.616;2023-07-24T01:22:12;8.95;;;8.18;;
4903;SDS011;2467;48.142;11.616;2023-07-24T01:22:57;9.10;;;8.02;;
4903;SDS011;2467;48.142;11.616;2023-07-24T01:23:44;10.48;;;7.68;;
4903;SDS011;2467;48.142;11.616;2023-07-24T01:24:24;8.45;;;7.65;;
4903;SDS011;2467;48.142;11.616;2023-07-24T01:25:04;10.52;;;9.52;;
4903;SDS011;2467;48.142;11.616;2023-07-24T01:25:48;8.98;;;8.07;;
4903;SDS011;2467;48.142;11.616;2023-07-24T01:26:27;10.20;;;8.27;;
4903;SDS011;2467;48.142;11.616;2023-07-24T01:26:59;10.35;;;9.48;;
4903;SDS011;2467;48.142;11.616;2023-07-24T01:27:31;8.90;;;8.00;;
4903;SDS011;2467;48.142;11.616;2023-07-24T01:28:06;9.75;;;8.80;;
4903;SDS011;2467;48.142;11.616;2023-07-24T01:28:38;10.43;;;9.52;;
4903;SDS011;2467;48.142;11.616;2023-07-24T01:29:10;8.00;;;7.25;;
4903;SDS011;2467;48.142;11.616;2023-07-24T01:29:42;8.07;;;7.30;;
4903;SDS011;2467;48.142;11.616;2023-07-24T01:30:16;7.78;;;7.07;;
4903;SDS011;2467;48.142;11.616;2023-07-24T01:30:49;9.00;;;8.20;;
4903;SDS011;2467;48.142;11.616;2023-07-24T01:31:22;9.02;;;8.18;;
4903;SDS011;2467;48.142;11.616;2023-07-24T01:31:54;9.82;;;8.93;;
4903;SDS011;2467;48.142;11.616;2023-07-24T01:32:27;9.25;;;7.43;;
4903;SDS011;2467;48.142;11.616;2023-07-24T01:33:00;8.30;;;7.50;;
4903;SDS011;2467;48.142;11.616;2023-07-24T01:33:32;8.82;;;8.02;;
4903;SDS011;2467;48.142;11.616;2023-07-24T01:34:06;8.65;;;7.72;;
4903;SDS011;2467;48.142;11.616;2023-07-24T01:34:38;8.35;;;7.55;;
4903;SDS011;2467;48.142;11.616;2023-07-24T01:35:11;8.68;;;7.82;;
4903;SDS011;2467;48.142;11.616;2023-07-24T01:35:43;8.70;;;7.90;;
4903;SDS011;2467;48.142;11.616;2023-07-24T01:36:15;8.50;;;7.70;;
4903;SDS011;2467;48.142;11.616;2023-07-24T01:36:51;9.32;;;8.43;;
4903;SDS011;2467;48.142;11.616;2023-07-24T01:37:23;9.05;;;8.20;;
4903;SDS011;2467;48.142;11.616;2023-07-24T01:37:56;8.93;;;8.13;;
4903;SDS011;2467;48.142;11.616;2023-07-24T01:38:30;9.15;;;8.23;;
4903;SDS011;2467;48.142;11.616;2023-07-24T01:39:06;8.85;;;7.97;;
4903;SDS011;2467;48.142;11.616;2023-07-24T01:39:39;8.25;;;7.45;;
4903;SDS011;2467;48.142;11.616;2023-07-24T01:40:13;8.40;;;7.60;;
4903;SDS011;2467;48.142;11.616;2023-07-24T01:40:46;8.07;;;7.38;;
4903;SDS011;2467;48.142;11.616;2023-07-24T01:41:21;10.13;;;9.13;;
4903;SDS011;2467;48.142;11.616;2023-07-24T01:41:54;8.55;;;7.75;;
4903;SDS011;2467;48.142;11.616;2023-07-24T01:42:26;8.50;;;7.70;;
4903;SDS011;2467;48.142;11.616;2023-07-24T01:42:59;9.63;;;8.75;;
4903;SDS011;2467;48.142;11.616;2023-07-24T01:43:32;8.90;;;8.00;;
4903;SDS011;2467;48.142;11.616;2023-07-24T01:44:05;8.57;;;7.82;;
4903;SDS011;2467;48.142;11.616;2023-07-24T01:44:37;8.52;;;7.72;;
4903;SDS011;2467;48.142;11.616;2023-07-24T01:45:09;9.45;;;7.95;;
4903;SDS011;2467;48.142;11.616;2023-07-24T01:45:43;8.70;;;8.00;;
4903;SDS011;2467;48.142;11.616;2023-07-24T01:46:15;9.73;;;6.50;;
4903;SDS011;2467;48.142;11.616;2023-07-24T01:46:47;8.15;;;7.35;;
4903;SDS011;2467;48.142;11.616;2023-07-24T01:47:19;8.50;;;7.70;;
4903;SDS011;2467;48.142;11.616;2023-07-24T01:47:52;7.63;;;6.85;;
4903;SDS011;2467;48.142;11.616;2023-07-24T01:48:24;7.90;;;7.20;;
4903;SDS011;2467;48.142;11.616;2023-07-24T01:48:56;9.43;;;8.45;;
4903;SDS011;2467;48.142;11.616;2023-07-24T01:49:29;10.30;;;7.10;;
4903;SDS011;2467;48.142;11.616;2023-07-24T01:50:01;8.98;;;8.18;;
4903;SDS011;2467;48.142;11.616;2023-07-24T01:50:33;9.80;;;8.65;;
4903;SDS011;2467;48.142;11.616;2023-07-24T01:51:05;9.40;;;8.50;;
4903;SDS011;2467;48.142;11.616;2023-07-24T01:51:38;9.25;;;8.10;;
4903;SDS011;2467;48.142;11.616;2023-07-24T01:52:09;10.63;;;9.63;;
4903;SDS011;2467;48.142;11.616;2023-07-24T01:52:41;49.55;;;44.80;;
4903;SDS011;2467;48.142;11.616;2023-07-24T01:53:13;43.25;;;38.83;;
4903;SDS011;2467;48.142;11.616;2023-07-24T01:53:46;22.80;;;20.50;;
4903;SDS011;2467;48.142;11.616;2023-07-24T01:54:18;18.98;;;16.98;;
4903;SDS011;2467;48.142;11.616;2023-07-24T01:54:50;19.38;;;17.55;;
4903;SDS011;2467;48.142;11.616;2023-07-24T01:55:22;14.18;;;12.88;;
4903;SDS011;2467;48.142;11.616;2023-07-24T01:55:56;14.43;;;11.75;;
4903;SDS011;2467;48.142;11.616;2023-07-24T01:56:29;12.52;;;11.32;;
4903;SDS011;2467;48.142;11.616;2023-07-24T01:57:01;11.75;;;10.65;;
4903;SDS011;2467;48.142;11.616;2023-07-24T01:57:34;11.43;;;10.32;;
4903;SDS011;2467;48.142;11.616;2023-07-24T01:58:07;11.32;;;10.25;;
4903;SDS011;2467;48.142;11.616;2023-07-24T01:58:38;10.25;;;9.25;;
4903;SDS011;2467;48.142;11.616;2023-07-24T01:59:10;11.05;;;10.05;;
4903;SDS011;2467;48.142;11.616;2023-07-24T01:59:42;9.27;;;8.40;;
4903;SDS011;2467;48.142;11.616;2023-07-24T02:00:16;8.27;;;7.47;;
4903;SDS011;2467;48.142;11.616;2023-07-24T02:00:48;9.25;;;7.82;;
4903;SDS011;2467;48.142;11.616;2023-07-24T02:01:20;9.85;;;7.05;;
4903;SDS011;2467;48.142;11.616;2023-07-24T02:01:52;8.75;;;7.78;;
4903;SDS011;2467;48.142;11.616;2023-07-24T02:02:24;8.85;;;8.05;;
4903;SDS011;2467;48.142;11.616;2023-07-24T02:02:56;8.45;;;7.55;;
4903;SDS011;2467;48.142;11.616;2023-07-24T02:03:29;8.57;;;7.70;;
4903;SDS011;2467;48.142;11.616;2023-07-24T02:04:01;9.27;;;8.38;;
4903;SDS011;2467;48.142;11.616;2023-07-24T02:04:33;9.70;;;8.70;;
4903;SDS011;2467;48.142;11.616;2023-07-24T02:05:06;8.57;;;7.78;;
4903;SDS011;2467;48.142;11.616;2023-07-24T02:05:38;8.65;;;7.85;;
4903;SDS011;2467;48.142;11.616;2023-07-24T02:06:10;9.20;;;8.30;;
4903;SDS011;2467;48.142;11.616;2023-07-24T02:06:42;9.32;;;8.43;;
4903;SDS011;2467;48.142;11.616;2023-07-24T02:07:15;8.68;;;7.55;;
4903;SDS011;2467;48.142;11.616;2023-07-24T02:07:46;8.95;;;8.15;;
4903;SDS011;2467;48.142;11.616;2023-07-24T02:08:18;8.00;;;7.30;;
4903;SDS011;2467;48.142;11.616;2023-07-24T02:08:50;9.00;;;8.10;;
4903;SDS011;2467;48.142;11.616;2023-07-24T02:09:23;9.57;;;8.68;;
4903;SDS011;2467;48.142;11.616;2023-07-24T02:09:56;8.27;;;7.47;;
4903;SDS011;2467;48.142;11.616;2023-07-24T02:10:28;8.98;;;8.07;;
4903;SDS011;2467;48.142;11.616;2023-07-24T02:11:01;8.05;;;7.35;;
4903;SDS011;2467;48.142;11.616;2023-07-24T02:11:34;10.30;;;9.40;;
4903;SDS011;2467;48.142;11.616;2023-07-24T02:12:06;9.35;;;8.45;;
4903;SDS011;2467;48.142;11.616;2023-07-24T02:12:38;7.90;;;7.18;;
4903;SDS011;2467;48.142;11.616;2023-07-24T02:13:10;8.98;;;8.07;;
4903;SDS011;2467;48.142;11.616;2023-07-24T02:13:43;8.93;;;7.60;;
4903;SDS011;2467;48.142;11.616;2023-07-24T02:14:17;9.35;;;8.45;;
4903;SDS011;2467;48.142;11.616;2023-07-24T02:14:49;8.45;;;7.75;;
4903;SDS011;2467;48.142;11.616;2023-07-24T02:15:22;9.20;;;8.30;;
4903;SDS011;2467;48.142;11.616;2023-07-24T02:15:55;8.70;;;7.90;;
4903;SDS011;2467;48.142;11.616;2023-07-24T02:16:27;9.40;;;8.25;;
4903;SDS011;2467;48.142;11.616;2023-07-24T02:17:00;8.88;;;8.10;;
4903;SDS011;2467;48.142;11.616;2023-07-24T02:17:32;7.95;;;7.20;;
4903;SDS011;2467;48.142;11.616;2023-07-24T02:18:04;9.05;;;8.15;;
4903;SDS011;2467;48.142;11.616;2023-07-24T02:18:36;8.32;;;7.53;;
4903;SDS011;2467;48.142;11.616;2023-07-24T02:19:08;8.00;;;7.30;;
4903;SDS011;2467;48.142;11.616;2023-07-24T02:19:41;8.55;;;7.75;;
4903;SDS011;2467;48.142;11.616;2023-07-24T02:20:13;10.80;;;8.77;;
4903;SDS011;2467;48.142;11.616;2023-07-24T02:20:48;8.73;;;7.93;;
4903;SDS011;2467;48.142;11.616;2023-07-24T02:21:20;8.60;;;7.80;;
4903;SDS011;2467;48.142;11.616;2023-07-24T02:21:53;8.68;;;7.80;;
4903;SDS011;2467;48.142;11.616;2023-07-24T02:22:25;8.52;;;7.72;;
4903;SDS011;2467;48.142;11.616;2023-07-24T02:22:57;9.88;;;8.32;;
4903;SDS011;2467;48.142;11.616;2023-07-24T02:23:29;8.55;;;7.38;;
4903;SDS011;2467;48.142;11.616;2023-07-24T02:24:02;8.63;;;7.75;;
4903;SDS011;2467;48.142;11.616;2023-07-24T02:24:34;10.40;;;8.38;;
4903;SDS011;2467;48.142;11.616;2023-07-24T02:25:07;8.55;;;7.32;;
4903;SDS011;2467;48.142;11.616;2023-07-24T02:25:39;8.82;;;7.78;;
4903;SDS011;2467;48.142;11.616;2023-07-24T02:26:13;9.43;;;8.52;;
4903;SDS011;2467;48.142;11.616;2023-07-24T02:26:45;8.90;;;8.00;;
4903;SDS011;2467;48.142;11.616;2023-07-24T02:27:24;8.88;;;8.10;;
4903;SDS011;2467;48.142;11.616;2023-07-24T02:27:57;8.90;;;8.10;;
4903;SDS011;2467;48.142;11.616;2023-07-24T02:28:29;9.32;;;8.43;;
4903;SDS011;2467;48.142;11.616;2023-07-24T02:29:01;8.10;;;7.30;;
4903;SDS011;2467;48.142;11.616;2023-07-24T02:29:33;8.07;;;7.40;;
4903;SDS011;2467;48.142;11.616;2023-07-24T02:30:07;8.80;;;7.93;;
4903;SDS011;2467;48.142;11.616;2023-07-24T02:30:39;10.00;;;7.95;;
4903;SDS011;2467;48.142;11.616;2023-07-24T02:31:11;8.32;;;7.38;;
4903;SDS011;2467;48.142;11.616;2023-07-24T02:31:43;8.98;;;8.10;;
4903;SDS011;2467;48.142;11.616;2023-07-24T02:32:15;8.48;;;7.63;;
4903;SDS011;2467;48.142;11.616;2023-07-24T02:32:48;9.55;;;8.68;;
4903;SDS011;2467;48.142;11.616;2023-07-24T02:33:20;8.40;;;7.60;;
4903;SDS011;2467;48.142;11.616;2023-07-24T02:33:52;9.30;;;8.30;;
4903;SDS011;2467;48.142;11.616;2023-07-24T02:34:25;9.40;;;8.50;;
4903;SDS011;2467;48.142;11.616;2023-07-24T02:34:59;10.40;;;9.07;;
4903;SDS011;2467;48.142;11.616;2023-07-24T02:35:31;9.25;;;8.38;;
4903;SDS011;2467;48.142;11.616;2023-07-24T02:36:03;8.73;;;8.02;;
4903;SDS011;2467;48.142;11.616;2023-07-24T02:36:35;8.88;;;8.07;;
4903;SDS011;2467;48.142;11.616;2023-07-24T02:37:09;8.52;;;7.65;;
4903;SDS011;2467;48.142;11.616;2023-07-24T02:37:41;8.38;;;7.57;;
4903;SDS011;2467;48.142;11.616;2023-07-24T02:38:12;8.77;;;8.07;;
4903;SDS011;2467;48.142;11.616;2023-07-24T02:38:44;9.90;;;9.00;;
4903;SDS011;2467;48.142;11.616;2023-07-24T02:39:17;8.88;;;8.00;;
4903;SDS011;2467;48.142;11.616;2023-07-24T02:39:49;7.72;;;7.03;;
4903;SDS011;2467;48.142;11.616;2023-07-24T02:40:22;8.70;;;7.85;;
4903;SDS011;2467;48.142;11.616;2023-07-24T02:40:54;10.00;;;9.00;;
4903;SDS011;2467;48.142;11.616;2023-07-24T02:41:28;9.85;;;8.88;;
4903;SDS011;2467;48.142;11.616;2023-07-24T02:42:00;9.77;;;8.98;;
4903;SDS011;2467;48.142;11.616;2023-07-24T02:42:32;9.18;;;8.30;;
4903;SDS011;2467;48.142;11.616;2023-07-24T02:43:05;9.63;;;8.68;;
4903;SDS011;2467;48.142;11.616;2023-07-24T02:43:37;8.85;;;7.95;;
4903;SDS011;2467;48.142;11.616;2023-07-24T02:44:08;9.57;;;8.68;;
4903;SDS011;2467;48.142;11.616;2023-07-24T02:44:40;9.13;;;8.02;;
4903;SDS011;2467;48.142;11.616;2023-07-24T02:45:13;9.77;;;8.88;;
4903;SDS011;2467;48.142;11.616;2023-07-24T02:45:45;10.55;;;9.52;;
4903;SDS011;2467;48.142;11.616;2023-07-24T02:46:17;8.85;;;8.05;;
4903;SDS011;2467;48.142;11.616;2023-07-24T02:46:50;10.52;;;9.13;;
4903;SDS011;2467;48.142;11.616;2023-07-24T02:47:22;8.88;;;8.07;;
4903;SDS011;2467;48.142;11.616;2023-07-24T02:47:54;8.68;;;7.90;;
4903;SDS011;2467;48.142;11.616;2023-07-24T02:48:26;9.65;;;8.75;;
4903;SDS011;2467;48.142;11.616;2023-07-24T02:49:05;10.13;;;9.18;;
4903;SDS011;2467;48.142;11.616;2023-07-24T02:49:37;9.88;;;8.73;;
4903;SDS011;2467;48.142;11.616;2023-07-24T02:50:09;9.25;;;8.15;;
4903;SDS011;2467;48.142;11.616;2023-07-24T02:50:41;8.80;;;7.68;;
4903;SDS011;2467;48.142;11.616;2023-07-24T02:51:13;10.02;;;9.07;;
4903;SDS011;2467;48.142;11.616;2023-07-24T02:51:48;8.40;;;7.65;;
4903;SDS011;2467;48.142;11.616;2023-07-24T02:52:22;11.48;;;8.85;;
4903;SDS011;2467;48.142;11.616;2023-07-24T02:52:54;9.52;;;8.45;;
4903;SDS011;2467;48.142;11.616;2023-07-24T02:53:27;10.30;;;8.60;;
4903;SDS011;2467;48.142;11.616;2023-07-24T02:53:59;8.85;;;8.05;;
4903;SDS011;2467;48.142;11.616;2023-07-24T02:54:30;8.80;;;7.70;;
4903;SDS011;2467;48.142;11.616;2023-07-24T02:55:02;9.30;;;8.45;;
4903;SDS011;2467;48.142;11.616;2023-07-24T02:55:35;10.57;;;9.00;;
4903;SDS011;2467;48.142;11.616;2023-07-24T02:56:08;8.88;;;7.75;;
4903;SDS011;2467;48.142;11.616;2023-07-24T02:56:41;8.95;;;8.15;;
4903;SDS011;2467;48.142;11.616;2023-07-24T02:57:13;9.45;;;8.45;;
4903;SDS011;2467;48.142;11.616;2023-07-24T02:57:46;8.82;;;7.93;;
4903;SDS011;2467;48.142;11.616;2023-07-24T02:58:27;10.52;;;8.88;;
4903;SDS011;2467;48.142;11.616;2023-07-24T02:58:59;9.48;;;8.20;;
4903;SDS011;2467;48.142;11.616;2023-07-24T02:59:31;9.82;;;8.90;;
4903;SDS011;2467;48.142;11.616;2023-07-24T03:00:04;8.95;;;8.13;;
4903;SDS011;2467;48.142;11.616;2023-07-24T03:00:37;9.65;;;8.75;;
4903;SDS011;2467;48.142;11.616;2023-07-24T03:01:09;8.82;;;8.00;;
4903;SDS011;2467;48.142;11.616;2023-07-24T03:01:43;9.73;;;8.73;;
4903;SDS011;2467;48.142;11.616;2023-07-24T03:02:15;9.43;;;8.25;;
4903;SDS011;2467;48.142;11.616;2023-07-24T03:02:47;9.27;;;8.45;;
4903;SDS011;2467;48.142;11.616;2023-07-24T03:03:19;10.80;;;9.07;;
4903;SDS011;2467;48.142;11.616;2023-07-24T03:03:52;9.60;;;8.65;;
4903;SDS011;2467;48.142;11.616;2023-07-24T03:04:24;9.30;;;8.43;;
4903;SDS011;2467;48.142;11.616;2023-07-24T03:04:56;11.13;;;9.15;;
4903;SDS011;2467;48.142;11.616;2023-07-24T03:05:29;9.15;;;8.18;;
4903;SDS011;2467;48.142;11.616;2023-07-24T03:06:07;9.90;;;8.90;;
4903;SDS011;2467;48.142;11.616;2023-07-24T03:06:39;13.40;;;9.73;;
4903;SDS011;2467;48.142;11.616;2023-07-24T03:07:11;10.43;;;9.32;;
4903;SDS011;2467;48.142;11.616;2023-07-24T03:07:44;9.45;;;8.50;;
4903;SDS011;2467;48.142;11.616;2023-07-24T03:08:16;9.95;;;9.05;;
4903;SDS011;2467;48.142;11.616;2023-07-24T03:08:48;9.25;;;8.35;;
4903;SDS011;2467;48.142;11.616;2023-07-24T03:09:20;10.70;;;9.18;;
4903;SDS011;2467;48.142;11.616;2023-07-24T03:09:53;9.48;;;8.57;;
4903;SDS011;2467;48.142;11.616;2023-07-24T03:10:27;10.00;;;9.10;;
4903;SDS011;2467;48.142;11.616;2023-07-24T03:10:59;10.18;;;9.18;;
4903;SDS011;2467;48.142;11.616;2023-07-24T03:11:33;9.68;;;8.68;;
4903;SDS011;2467;48.142;11.616;2023-07-24T03:12:06;10.02;;;9.07;;
4903;SDS011;2467;48.142;11.616;2023-07-24T03:12:59;8.95;;;8.05;;
4903;SDS011;2467;48.142;11.616;2023-07-24T03:13:32;16.88;;;11.15;;
4903;SDS011;2467;48.142;11.616;2023-07-24T03:14:04;10.05;;;9.05;;
4903;SDS011;2467;48.142;11.616;2023-07-24T03:14:36;11.25;;;9.32;;
4903;SDS011;2467;48.142;11.616;2023-07-24T03:15:09;10.32;;;9.32;;
4903;SDS011;2467;48.142;11.616;2023-07-24T03:15:41;10.30;;;8.63;;
4903;SDS011;2467;48.142;11.616;2023-07-24T03:16:13;14.35;;;10.45;;
4903;SDS011;2467;48.142;11.616;2023-07-24T03:16:45;12.88;;;10.52;;
4903;SDS011;2467;48.142;11.616;2023-07-24T03:17:18;13.05;;;9.70;;
4903;SDS011;2467;48.142;11.616;2023-07-24T03:17:50;11.25;;;9.60;;
4903;SDS011;2467;48.142;11.616;2023-07-24T03:18:22;10.32;;;9.32;;
4903;SDS011;2467;48.142;11.616;2023-07-24T03:18:54;10.52;;;9.43;;
4903;SDS011;2467;48.142;11.616;2023-07-24T03:19:27;11.43;;;10.27;;
4903;SDS011;2467;48.142;11.616;2023-07-24T03:19:59;12.73;;;10.45;;
4903;SDS011;2467;48.142;11.616;2023-07-24T03:20:38;11.18;;;9.20;;
4903;SDS011;2467;48.142;11.616;2023-07-24T03:21:10;13.20;;;10.68;;